Time;durP1;ratioP1;P1;durP2;ratioP2;P2;SDS_P1;SDS_P2;PMS_P1;PMS_P2;Temp;Humidity;BMP_temperature;BMP_pressure;BME280_temperature;BME280_humidity;BME280_pressure;Samples;Min_cycle;Max_cycle;Signal;HPM_P1;HPM_P2
2022/12/28 00:07:04;;;;;;;10.60;3.10;;;;;;;;;;100413;1343;545312;-82
2022/12/28 00:09:30;;;;;;;7.70;2.80;;;;;;;;;;102610;1317;22565;-78
2022/12/28 00:11:57;;;;;;;7.60;2.40;;;;;;;;;;103496;1307;22553;-79
2022/12/28 00:14:24;;;;;;;7.50;2.60;;;;;;;;;;103462;1300;22486;-80
2022/12/28 00:16:50;;;;;;;8.90;2.70;;;;;;;;;;103435;1295;22476;-79
2022/12/28 00:19:17;;;;;;;10.00;2.70;;;;;;;;;;103431;1307;25225;-80
2022/12/28 00:21:44;;;;;;;10.50;3.10;;;;;;;;;;102700;1303;1585502;-81
2022/12/28 00:24:19;;;;;;;9.20;2.50;;;;;;;;;;103611;1304;22509;-79
2022/12/28 00:26:45;;;;;;;11.00;2.90;;;;;;;;;;103531;1304;22472;-77
2022/12/28 00:29:12;;;;;;;8.20;2.30;;;;;;;;;;103555;1307;25320;-78
2022/12/28 00:31:39;;;;;;;9.90;3.50;;;;;;;;;;103764;1304;22534;-82
2022/12/28 00:34:05;;;;;;;9.20;3.10;;;;;;;;;;103794;1296;22461;-78
2022/12/28 00:36:33;;;;;;;9.20;3.00;;;;;;;;;;103740;1304;22487;-76
2022/12/28 00:39:00;;;;;;;8.50;2.80;;;;;;;;;;103520;1307;24307;-82
2022/12/28 00:41:26;;;;;;;9.60;3.00;;;;;;;;;;103547;1307;25661;-78
2022/12/28 00:43:53;;;;;;;8.20;2.90;;;;;;;;;;103649;1310;22489;-80
2022/12/28 00:46:20;;;;;;;9.00;3.10;;;;;;;;;;103625;1307;25201;-76
2022/12/28 00:48:46;;;;;;;8.70;2.80;;;;;;;;;;103788;1304;22472;-82
2022/12/28 00:51:14;;;;;;;11.90;2.80;;;;;;;;;;103764;1304;25205;-78
2022/12/28 00:53:41;;;;;;;8.60;2.90;;;;;;;;;;103815;1303;24262;-79
2022/12/28 00:56:08;;;;;;;9.40;2.80;;;;;;;;;;103610;1304;25469;-77
2022/12/28 00:58:35;;;;;;;8.80;2.90;;;;;;;;;;103788;1305;22481;-79
2022/12/28 01:01:03;;;;;;;12.20;3.30;;;;;;;;;;103523;1307;25919;-78
2022/12/28 01:03:30;;;;;;;10.90;3.50;;;;;;;;;;103511;1306;22466;-79
2022/12/28 01:05:57;;;;;;;11.20;4.00;;;;;;;;;;103479;1307;22559;-80
2022/12/28 01:08:24;;;;;;;12.20;3.90;;;;;;;;;;103647;1304;25267;-80
2022/12/28 01:10:51;;;;;;;13.40;4.00;;;;;;;;;;103814;1302;21778;-76
2022/12/28 01:13:17;;;;;;;12.40;4.20;;;;;;;;;;103730;1302;24468;-78
2022/12/28 01:15:44;;;;;;;10.40;3.60;;;;;;;;;;103688;1305;25533;-79
2022/12/28 01:18:11;;;;;;;9.80;3.00;;;;;;;;;;103565;1306;24393;-75
2022/12/28 01:20:38;;;;;;;12.20;3.30;;;;;;;;;;103489;1304;22466;-77
2022/12/28 01:23:05;;;;;;;11.30;3.00;;;;;;;;;;103521;1306;22569;-76
2022/12/28 01:25:32;;;;;;;10.10;3.40;;;;;;;;;;103367;1306;24029;-78
2022/12/28 01:27:59;;;;;;;12.20;2.90;;;;;;;;;;103315;1304;25231;-76
2022/12/28 01:30:26;;;;;;;9.40;4.80;;;;;;;;;;103420;1302;24321;-79
2022/12/28 01:32:52;;;;;;;9.20;2.90;;;;;;;;;;103489;1307;22513;-76
2022/12/28 01:35:19;;;;;;;9.50;3.50;;;;;;;;;;103625;1305;21686;-77
2022/12/28 01:37:45;;;;;;;10.30;3.50;;;;;;;;;;103503;1291;25225;-82
2022/12/28 01:40:13;;;;;;;9.90;3.40;;;;;;;;;;103202;1306;25648;-79
2022/12/28 01:42:40;;;;;;;9.20;2.90;;;;;;;;;;103549;1306;22465;-78
2022/12/28 01:45:17;;;;;;;9.10;2.80;;;;;;;;;;103480;1306;24317;-81
2022/12/28 01:47:45;;;;;;;8.20;2.70;;;;;;;;;;103496;1306;23197;-74
2022/12/28 01:50:14;;;;;;;10.20;3.20;;;;;;;;;;103566;1304;25322;-76
2022/12/28 01:52:44;;;;;;;9.20;2.80;;;;;;;;;;103736;1307;25327;-76
2022/12/28 01:55:11;;;;;;;8.40;2.90;;;;;;;;;;103572;1307;22481;-78
2022/12/28 01:57:42;;;;;;;9.90;2.80;;;;;;;;;;103604;1307;24501;-76
2022/12/28 02:00:10;;;;;;;10.60;2.80;;;;;;;;;;103828;1307;23442;-77
2022/12/28 02:02:43;;;;;;;9.00;2.80;;;;;;;;;;103611;1304;22464;-78
2022/12/28 02:05:14;;;;;;;6.50;2.60;;;;;;;;;;103514;1306;22488;-76
2022/12/28 02:07:43;;;;;;;8.40;2.40;;;;;;;;;;103468;1305;25274;-79
2022/12/28 02:10:10;;;;;;;9.80;3.10;;;;;;;;;;103519;1307;25297;-78
2022/12/28 02:12:37;;;;;;;9.80;2.50;;;;;;;;;;103784;1307;22756;-81
2022/12/28 02:15:06;;;;;;;12.00;3.00;;;;;;;;;;103657;1299;24321;-80
2022/12/28 02:17:33;;;;;;;9.00;3.10;;;;;;;;;;103577;1305;22478;-80
2022/12/28 02:20:00;;;;;;;9.50;3.00;;;;;;;;;;103434;1306;25262;-79
2022/12/28 02:22:33;;;;;;;9.00;3.00;;;;;;;;;;103445;1306;22481;-76
2022/12/28 02:25:25;;;;;;;7.80;3.20;;;;;;;;;;103512;1306;25374;-77
2022/12/28 02:28:01;;;;;;;10.00;3.60;;;;;;;;;;103480;1307;25341;-79
2022/12/28 02:30:31;;;;;;;8.10;3.50;;;;;;;;;;103458;1301;25325;-79
2022/12/28 02:33:01;;;;;;;10.30;4.00;;;;;;;;;;103572;1307;25302;-76
2022/12/28 02:35:37;;;;;;;12.30;3.50;;;;;;;;;;103502;1305;22507;-77
2022/12/28 02:38:04;;;;;;;8.70;3.40;;;;;;;;;;103562;1307;22469;-77
2022/12/28 02:40:33;;;;;;;11.90;3.70;;;;;;;;;;103569;1305;22477;-76
2022/12/28 02:43:01;;;;;;;12.60;4.40;;;;;;;;;;103560;1306;25395;-77
2022/12/28 02:51:21;;;;;;;11.70;4.70;;;;;;;;;;103499;1281;22481;-80
2022/12/28 02:54:00;;;;;;;15.70;5.10;;;;;;;;;;103733;1304;22470;-78
2022/12/28 02:56:30;;;;;;;14.70;5.10;;;;;;;;;;103711;1305;25288;-80
2022/12/28 02:59:00;;;;;;;10.70;4.60;;;;;;;;;;103554;1307;22530;-81
2022/12/28 03:01:43;;;;;;;13.20;5.10;;;;;;;;;;103456;1307;22510;-80
2022/12/28 03:04:22;;;;;;;11.20;4.90;;;;;;;;;;103444;1306;23042;-76
2022/12/28 03:09:53;;;;;;;11.40;3.90;;;;;;;;;;103561;1306;26528;-76
2022/12/28 03:12:25;;;;;;;9.00;3.40;;;;;;;;;;103809;1307;25277;-77
2022/12/28 03:15:12;;;;;;;9.80;3.90;;;;;;;;;;103606;1285;22463;-76
2022/12/28 03:31:37;;;;;;;11.40;4.10;;;;;;;;;;103725;1299;22585;-77
2022/12/28 03:34:07;;;;;;;8.90;3.80;;;;;;;;;;103559;1280;22525;-80
2022/12/28 03:36:39;;;;;;;10.00;3.40;;;;;;;;;;103626;1305;22728;-78
2022/12/28 03:39:13;;;;;;;9.20;3.60;;;;;;;;;;103728;1304;24423;-80
2022/12/28 03:41:44;;;;;;;11.40;3.90;;;;;;;;;;103396;1306;23204;-78
2022/12/28 03:44:31;;;;;;;11.90;4.30;;;;;;;;;;103463;1306;22482;-82
2022/12/28 03:47:10;;;;;;;12.40;3.90;;;;;;;;;;103510;1306;22546;-77
2022/12/28 03:49:38;;;;;;;13.80;4.90;;;;;;;;;;103476;1306;22484;-84
2022/12/28 03:52:06;;;;;;;13.20;4.30;;;;;;;;;;103529;1304;25498;-83
2022/12/28 03:54:33;;;;;;;13.20;4.00;;;;;;;;;;103538;1307;22615;-78
2022/12/28 03:57:00;;;;;;;11.90;4.30;;;;;;;;;;103563;1306;26525;-78
2022/12/28 03:59:30;;;;;;;9.30;3.00;;;;;;;;;;103584;1307;25377;-77
2022/12/28 04:01:57;;;;;;;9.90;3.60;;;;;;;;;;103489;1306;22480;-82
2022/12/28 04:04:24;;;;;;;10.60;4.80;;;;;;;;;;103264;1307;23892;-80
2022/12/28 04:06:51;;;;;;;11.70;4.20;;;;;;;;;;103490;1286;25357;-77
2022/12/28 04:09:17;;;;;;;11.20;4.50;;;;;;;;;;103316;1304;22417;-76
2022/12/28 04:11:44;;;;;;;10.50;3.90;;;;;;;;;;103392;1303;22482;-79
2022/12/28 04:14:17;;;;;;;10.80;4.30;;;;;;;;;;103591;1291;22477;-78
2022/12/28 04:16:48;;;;;;;11.90;4.20;;;;;;;;;;103547;1307;22469;-75
2022/12/28 04:19:15;;;;;;;9.60;4.10;;;;;;;;;;103603;1306;25589;-81
2022/12/28 04:21:43;;;;;;;9.70;3.80;;;;;;;;;;103438;1305;22543;-82
2022/12/28 04:24:10;;;;;;;8.80;3.60;;;;;;;;;;103474;1306;24147;-78
2022/12/28 04:26:38;;;;;;;9.30;3.50;;;;;;;;;;103455;1298;24314;-81
2022/12/28 04:29:04;;;;;;;9.50;3.40;;;;;;;;;;103475;1306;25455;-81
2022/12/28 04:32:00;;;;;;;8.70;3.30;;;;;;;;;;103486;1305;24247;-77
2022/12/28 04:34:27;;;;;;;9.70;3.00;;;;;;;;;;103576;1291;23284;-81
2022/12/28 04:36:58;;;;;;;7.20;3.10;;;;;;;;;;103683;1299;22709;-80
2022/12/28 04:39:24;;;;;;;7.80;2.90;;;;;;;;;;103431;1296;22468;-76
2022/12/28 04:41:51;;;;;;;10.60;3.20;;;;;;;;;;103360;1306;22629;-75
2022/12/28 04:44:18;;;;;;;8.20;2.90;;;;;;;;;;103390;1306;22459;-82
2022/12/28 04:46:45;;;;;;;8.40;3.10;;;;;;;;;;103432;1307;25394;-80
2022/12/28 04:49:11;;;;;;;8.60;2.90;;;;;;;;;;103518;1306;22476;-79
2022/12/28 04:51:38;;;;;;;8.60;2.80;;;;;;;;;;103445;1304;22479;-83
2022/12/28 04:54:05;;;;;;;9.50;3.10;;;;;;;;;;103575;1294;24250;-78
2022/12/28 04:56:31;;;;;;;8.50;3.00;;;;;;;;;;103508;1299;22477;-77
2022/12/28 04:58:59;;;;;;;8.90;2.70;;;;;;;;;;103599;1299;22851;-83
2022/12/28 05:01:26;;;;;;;9.30;2.60;;;;;;;;;;103566;1307;22471;-79
2022/12/28 05:03:53;;;;;;;11.10;3.10;;;;;;;;;;103563;1306;24237;-78
2022/12/28 05:06:21;;;;;;;10.70;3.00;;;;;;;;;;103279;1306;22462;-79
2022/12/28 05:08:48;;;;;;;9.00;2.80;;;;;;;;;;103455;1306;22514;-81
2022/12/28 05:11:19;;;;;;;10.00;3.40;;;;;;;;;;103433;1289;22712;-82
2022/12/28 05:13:46;;;;;;;9.80;3.50;;;;;;;;;;103585;1302;22513;-80
2022/12/28 05:16:14;;;;;;;11.80;3.40;;;;;;;;;;103419;1301;24420;-83
2022/12/28 05:18:40;;;;;;;10.10;3.10;;;;;;;;;;103599;1298;25202;-79
2022/12/28 05:21:09;;;;;;;9.50;3.10;;;;;;;;;;103584;1299;22461;-82
2022/12/28 05:23:37;;;;;;;10.00;2.90;;;;;;;;;;103540;1290;22424;-79
2022/12/28 05:26:04;;;;;;;11.80;3.20;;;;;;;;;;103460;1306;23078;-81
2022/12/28 05:28:31;;;;;;;10.00;2.90;;;;;;;;;;103457;1306;25416;-77
2022/12/28 05:31:02;;;;;;;9.30;2.80;;;;;;;;;;103495;1306;23857;-76
2022/12/28 05:33:30;;;;;;;10.50;3.70;;;;;;;;;;103376;1306;24238;-78
2022/12/28 05:36:01;;;;;;;11.40;3.90;;;;;;;;;;103603;1305;24240;-82
2022/12/28 05:38:28;;;;;;;19.70;5.70;;;;;;;;;;103533;1305;25530;-80
2022/12/28 05:40:54;;;;;;;16.20;5.90;;;;;;;;;;103634;1306;25423;-81
2022/12/28 05:43:21;;;;;;;11.60;5.00;;;;;;;;;;103490;1298;22592;-78
2022/12/28 05:45:48;;;;;;;11.60;2.70;;;;;;;;;;103481;1306;24233;-81
2022/12/28 05:48:14;;;;;;;7.20;2.30;;;;;;;;;;103452;1301;22415;-82
2022/12/28 05:50:41;;;;;;;10.60;3.10;;;;;;;;;;103529;1307;24243;-79
2022/12/28 05:53:08;;;;;;;10.30;3.60;;;;;;;;;;103413;1307;22472;-82
2022/12/28 05:55:34;;;;;;;12.70;2.90;;;;;;;;;;103406;1294;22462;-78
2022/12/28 05:58:01;;;;;;;11.70;3.50;;;;;;;;;;103494;1307;24243;-79
2022/12/28 06:00:27;;;;;;;11.10;4.10;;;;;;;;;;103481;1307;22472;-83
2022/12/28 06:02:54;;;;;;;14.30;4.20;;;;;;;;;;103455;1302;22553;-80
2022/12/28 06:05:21;;;;;;;7.50;2.70;;;;;;;;;;103441;1306;22470;-82
2022/12/28 06:07:50;;;;;;;9.70;2.70;;;;;;;;;;103401;1306;24321;-80
2022/12/28 06:10:17;;;;;;;8.00;2.50;;;;;;;;;;103435;1306;25222;-83
2022/12/28 06:12:43;;;;;;;7.50;2.20;;;;;;;;;;103441;1306;22421;-77
2022/12/28 06:15:10;;;;;;;7.10;2.20;;;;;;;;;;103473;1300;22457;-78
2022/12/28 06:17:37;;;;;;;6.20;2.30;;;;;;;;;;103506;1307;24230;-80
2022/12/28 06:20:03;;;;;;;7.90;2.70;;;;;;;;;;103603;1298;25290;-79
2022/12/28 06:22:30;;;;;;;9.50;3.20;;;;;;;;;;103600;1307;22463;-81
2022/12/28 06:24:57;;;;;;;9.90;3.00;;;;;;;;;;103518;1298;22486;-82
2022/12/28 06:27:23;;;;;;;9.20;3.10;;;;;;;;;;103494;1306;23896;-77
2022/12/28 06:29:50;;;;;;;10.30;3.10;;;;;;;;;;103507;1300;22476;-78
2022/12/28 06:32:17;;;;;;;10.30;3.30;;;;;;;;;;103523;1299;22481;-82
2022/12/28 06:34:43;;;;;;;11.60;3.30;;;;;;;;;;103456;1307;25301;-79
2022/12/28 06:37:10;;;;;;;12.50;3.10;;;;;;;;;;103629;1307;24321;-78
2022/12/28 06:39:36;;;;;;;10.50;3.10;;;;;;;;;;103523;1307;25471;-77
2022/12/28 06:42:03;;;;;;;8.90;3.00;;;;;;;;;;103618;1305;22472;-80
2022/12/28 06:44:30;;;;;;;11.70;3.00;;;;;;;;;;103583;1306;24314;-86
2022/12/28 06:46:56;;;;;;;11.60;3.40;;;;;;;;;;103409;1306;22596;-77
2022/12/28 06:49:23;;;;;;;9.70;3.00;;;;;;;;;;103355;1306;22462;-82
2022/12/28 06:51:49;;;;;;;11.10;3.20;;;;;;;;;;103468;1301;25629;-77
2022/12/28 06:54:16;;;;;;;11.80;2.80;;;;;;;;;;103458;1307;25217;-81
2022/12/28 06:56:43;;;;;;;15.00;2.90;;;;;;;;;;103603;1305;22489;-79
2022/12/28 06:59:09;;;;;;;10.70;3.60;;;;;;;;;;103495;1300;25407;-77
2022/12/28 07:01:37;;;;;;;9.30;3.00;;;;;;;;;;103614;1293;22422;-80
2022/12/28 07:04:05;;;;;;;12.10;3.50;;;;;;;;;;103601;1307;22543;-77
2022/12/28 07:06:37;;;;;;;18.60;7.10;;;;;;;;;;103475;1307;26523;-77
2022/12/28 07:09:06;;;;;;;11.60;3.60;;;;;;;;;;103512;1306;22459;-80
2022/12/28 07:11:33;;;;;;;11.60;4.20;;;;;;;;;;103476;1282;24161;-79
2022/12/28 07:14:00;;;;;;;13.00;3.70;;;;;;;;;;103502;1292;22457;-79
2022/12/28 07:16:28;;;;;;;10.30;2.80;;;;;;;;;;103469;1307;25337;-80
2022/12/28 07:18:55;;;;;;;11.70;2.90;;;;;;;;;;103532;1282;26571;-82
2022/12/28 07:21:23;;;;;;;12.70;3.00;;;;;;;;;;103600;1307;25554;-79
2022/12/28 07:23:50;;;;;;;11.20;4.70;;;;;;;;;;103562;1305;22605;-78
2022/12/28 07:26:21;;;;;;;15.00;6.10;;;;;;;;;;103479;1301;25177;-78
2022/12/28 07:28:49;;;;;;;16.50;5.50;;;;;;;;;;103526;1306;22572;-81
2022/12/28 07:31:20;;;;;;;12.70;4.40;;;;;;;;;;103535;1307;22621;-77
2022/12/28 07:33:47;;;;;;;11.70;4.90;;;;;;;;;;103477;1306;24240;-79
2022/12/28 07:36:16;;;;;;;12.30;3.90;;;;;;;;;;103556;1298;23357;-80
2022/12/28 07:38:43;;;;;;;9.40;2.90;;;;;;;;;;103445;1307;22509;-80
2022/12/28 07:41:11;;;;;;;8.40;2.40;;;;;;;;;;103564;1307;22464;-79
2022/12/28 07:43:38;;;;;;;9.10;2.40;;;;;;;;;;103579;1307;25295;-77
2022/12/28 07:46:06;;;;;;;8.40;2.00;;;;;;;;;;103445;1304;22511;-81
2022/12/28 07:48:33;;;;;;;6.00;1.80;;;;;;;;;;103422;1302;24426;-75
2022/12/28 07:51:09;;;;;;;9.40;2.30;;;;;;;;;;103469;1306;24214;-78
2022/12/28 07:53:36;;;;;;;9.40;2.50;;;;;;;;;;103452;1305;22480;-80
2022/12/28 07:56:03;;;;;;;9.50;2.70;;;;;;;;;;103460;1306;25321;-76
2022/12/28 07:58:29;;;;;;;10.40;2.30;;;;;;;;;;103386;1307;22469;-78
2022/12/28 08:01:03;;;;;;;10.50;2.10;;;;;;;;;;103334;1307;25297;-81
2022/12/28 08:03:29;;;;;;;12.10;3.20;;;;;;;;;;103596;1307;25340;-82
2022/12/28 08:06:01;;;;;;;10.70;3.30;;;;;;;;;;103514;1306;25318;-81
2022/12/28 08:08:27;;;;;;;12.80;3.80;;;;;;;;;;103429;1306;25291;-81
2022/12/28 08:10:54;;;;;;;17.30;5.10;;;;;;;;;;103502;1298;22477;-79
2022/12/28 08:13:21;;;;;;;16.60;3.80;;;;;;;;;;103569;1306;22469;-78
2022/12/28 08:15:54;;;;;;;11.20;3.20;;;;;;;;;;103309;1305;24337;-80
2022/12/28 08:18:21;;;;;;;10.30;2.70;;;;;;;;;;103528;1303;22464;-77
2022/12/28 08:20:47;;;;;;;13.20;3.00;;;;;;;;;;103556;1293;22612;-81
2022/12/28 08:23:15;;;;;;;11.50;3.00;;;;;;;;;;103404;1305;22932;-82
2022/12/28 08:25:42;;;;;;;15.00;3.60;;;;;;;;;;103703;1307;23076;-79
2022/12/28 08:28:08;;;;;;;13.40;3.10;;;;;;;;;;103340;1306;25212;-80
2022/12/28 08:30:35;;;;;;;15.30;4.30;;;;;;;;;;103261;1306;23445;-81
2022/12/28 08:33:02;;;;;;;14.00;4.10;;;;;;;;;;103412;1306;22590;-83
2022/12/28 08:35:28;;;;;;;12.30;3.80;;;;;;;;;;103392;1306;22474;-83
2022/12/28 08:37:55;;;;;;;16.40;4.40;;;;;;;;;;103553;1307;22463;-77
2022/12/28 08:40:26;;;;;;;10.10;2.90;;;;;;;;;;103548;1298;24472;-78
2022/12/28 08:42:57;;;;;;;9.80;2.70;;;;;;;;;;103855;1305;22463;-79
2022/12/28 08:45:24;;;;;;;15.80;3.70;;;;;;;;;;103553;1305;24309;-79
2022/12/28 08:47:51;;;;;;;17.30;5.50;;;;;;;;;;103339;1306;24222;-79
2022/12/28 08:50:18;;;;;;;13.50;3.70;;;;;;;;;;103428;1288;24419;-81
2022/12/28 08:52:45;;;;;;;16.20;4.50;;;;;;;;;;103439;1307;22472;-80
2022/12/28 08:55:11;;;;;;;13.80;4.00;;;;;;;;;;103475;1292;22523;-78
2022/12/28 08:57:38;;;;;;;15.40;4.20;;;;;;;;;;103513;1282;22465;-81
2022/12/28 09:00:05;;;;;;;13.90;4.50;;;;;;;;;;103540;1275;22491;-79
2022/12/28 09:02:32;;;;;;;15.00;5.50;;;;;;;;;;103698;1306;24216;-79
2022/12/28 09:04:59;;;;;;;17.20;6.00;;;;;;;;;;103734;1306;22438;-79
2022/12/28 09:07:26;;;;;;;13.80;5.30;;;;;;;;;;103684;1285;22460;-80
2022/12/28 09:09:53;;;;;;;9.40;2.80;;;;;;;;;;103440;1285;25345;-79
2022/12/28 09:12:20;;;;;;;11.90;2.30;;;;;;;;;;103331;1290;22484;-81
2022/12/28 09:14:46;;;;;;;8.60;2.40;;;;;;;;;;103367;1295;22464;-83
2022/12/28 09:17:13;;;;;;;9.90;2.40;;;;;;;;;;103401;1292;22620;-77
2022/12/28 09:19:40;;;;;;;9.30;2.30;;;;;;;;;;103505;1292;22576;-79
2022/12/28 09:22:06;;;;;;;10.60;2.50;;;;;;;;;;103483;1284;22459;-83
2022/12/28 09:24:33;;;;;;;10.70;2.90;;;;;;;;;;103671;1283;24432;-83
2022/12/28 09:27:00;;;;;;;8.50;2.60;;;;;;;;;;103409;1292;22489;-80
2022/12/28 09:29:27;;;;;;;11.10;3.00;;;;;;;;;;103176;1287;22414;-81
2022/12/28 09:31:53;;;;;;;13.10;3.70;;;;;;;;;;103591;1300;23319;-79
2022/12/28 09:34:20;;;;;;;12.30;3.10;;;;;;;;;;103462;1307;22462;-78
2022/12/28 09:36:47;;;;;;;15.00;4.70;;;;;;;;;;103327;1294;22467;-82
2022/12/28 09:39:16;;;;;;;13.70;5.30;;;;;;;;;;103380;1306;22719;-79
2022/12/28 09:41:48;;;;;;;17.00;5.80;;;;;;;;;;103479;1306;24183;-80
2022/12/28 09:44:34;;;;;;;16.20;6.10;;;;;;;;;;103547;1292;22491;-80
2022/12/28 09:47:16;;;;;;;12.60;3.20;;;;;;;;;;103485;1307;22472;-81
2022/12/28 09:49:46;;;;;;;14.60;3.30;;;;;;;;;;103490;1306;24234;-79
2022/12/28 09:52:13;;;;;;;12.60;3.70;;;;;;;;;;103460;1306;25310;-81
2022/12/28 09:54:40;;;;;;;15.10;3.50;;;;;;;;;;103440;1285;25452;-77
2022/12/28 09:57:12;;;;;;;13.90;3.90;;;;;;;;;;103225;1281;24359;-78
2022/12/28 09:59:39;;;;;;;11.90;3.40;;;;;;;;;;103501;1285;22466;-81
2022/12/28 10:02:16;;;;;;;13.70;3.30;;;;;;;;;;103528;1306;24307;-80
2022/12/28 10:04:43;;;;;;;10.20;2.90;;;;;;;;;;103584;1294;22467;-77
2022/12/28 10:07:10;;;;;;;11.80;3.10;;;;;;;;;;103614;1275;22816;-79
2022/12/28 10:09:37;;;;;;;13.70;3.60;;;;;;;;;;103561;1291;22541;-79
2022/12/28 10:12:14;;;;;;;11.90;3.10;;;;;;;;;;103344;1285;22948;-81
2022/12/28 10:14:44;;;;;;;13.30;3.20;;;;;;;;;;103533;1301;24372;-79
2022/12/28 10:17:12;;;;;;;14.20;3.40;;;;;;;;;;103407;1295;22482;-80
2022/12/28 10:19:39;;;;;;;12.90;3.80;;;;;;;;;;103315;1292;22466;-79
2022/12/28 10:22:10;;;;;;;17.10;3.90;;;;;;;;;;103435;1285;22448;-77
2022/12/28 10:24:38;;;;;;;13.50;3.50;;;;;;;;;;103548;1284;25395;-81
2022/12/28 10:27:07;;;;;;;13.50;3.10;;;;;;;;;;103675;1278;22730;-80
2022/12/28 10:29:34;;;;;;;8.70;2.80;;;;;;;;;;103513;1292;22471;-79
2022/12/28 10:32:05;;;;;;;13.20;2.80;;;;;;;;;;103530;1287;22494;-80
2022/12/28 10:34:33;;;;;;;14.80;2.90;;;;;;;;;;103458;1288;22476;-79
2022/12/28 10:37:06;;;;;;;9.70;3.00;;;;;;;;;;103525;1307;22475;-80
2022/12/28 10:44:48;;;;;;;10.00;3.00;;;;;;;;;;100465;1318;545352;-81
2022/12/28 10:47:17;;;;;;;9.70;3.00;;;;;;;;;;103231;1286;24276;-79
2022/12/28 10:49:49;;;;;;;9.30;2.60;;;;;;;;;;103039;1291;25198;-82
2022/12/28 10:52:20;;;;;;;9.60;3.00;;;;;;;;;;103093;1302;22609;-82
2022/12/28 10:54:47;;;;;;;11.30;3.10;;;;;;;;;;103272;1309;22517;-82
2022/12/28 10:57:19;;;;;;;8.10;2.60;;;;;;;;;;103002;1305;22895;-80
2022/12/28 10:59:45;;;;;;;11.00;3.20;;;;;;;;;;102328;1307;22498;-82
2022/12/28 11:02:20;;;;;;;8.70;2.60;;;;;;;;;;103007;1313;25350;-81
2022/12/28 11:04:51;;;;;;;10.00;2.90;;;;;;;;;;103082;1311;22432;-79
2022/12/28 11:07:29;;;;;;;11.20;3.30;;;;;;;;;;106746;1289;22254;-78
2022/12/28 11:10:15;;;;;;;8.40;2.80;;;;;;;;;;106567;1310;22273;-79
2022/12/28 11:12:44;;;;;;;12.40;3.60;;;;;;;;;;106990;1280;22118;-78
2022/12/28 11:15:15;;;;;;;14.50;3.80;;;;;;;;;;106903;1306;22782;-77
2022/12/28 11:17:43;;;;;;;14.70;3.70;;;;;;;;;;106810;1308;22143;-78
2022/12/28 11:20:16;;;;;;;12.00;2.70;;;;;;;;;;106769;1302;22163;-78
2022/12/28 11:22:43;;;;;;;16.20;3.30;;;;;;;;;;106893;1307;22930;-77
2022/12/28 11:25:13;;;;;;;20.70;3.60;;;;;;;;;;106877;1306;22058;-78
2022/12/28 11:27:40;;;;;;;10.70;3.40;;;;;;;;;;106922;1289;22097;-79
2022/12/28 11:30:12;;;;;;;12.10;3.80;;;;;;;;;;106867;1306;22193;-77
2022/12/28 11:32:45;;;;;;;12.20;3.70;;;;;;;;;;106725;1306;22174;-77
2022/12/28 11:35:16;;;;;;;9.20;2.80;;;;;;;;;;106927;1292;22101;-78
2022/12/28 11:38:09;;;;;;;10.90;3.30;;;;;;;;;;106901;1307;22058;-78
2022/12/28 11:40:42;;;;;;;13.70;4.30;;;;;;;;;;107032;1306;22224;-78
2022/12/28 11:43:27;;;;;;;10.90;3.20;;;;;;;;;;107140;1300;22038;-78
2022/12/28 11:45:56;;;;;;;15.50;4.60;;;;;;;;;;106870;1306;21951;-77
2022/12/28 11:48:41;;;;;;;12.20;4.20;;;;;;;;;;106889;1307;22280;-78
2022/12/28 11:51:14;;;;;;;10.70;4.00;;;;;;;;;;106896;1307;22930;-81
2022/12/28 11:53:43;;;;;;;11.30;6.00;;;;;;;;;;106963;1306;22926;-77
2022/12/28 11:56:11;;;;;;;10.20;3.00;;;;;;;;;;106971;1306;21875;-77
2022/12/28 11:58:38;;;;;;;9.10;3.00;;;;;;;;;;106913;1306;22070;-76
2022/12/28 12:01:06;;;;;;;9.60;3.00;;;;;;;;;;106991;1305;22053;-77
2022/12/28 12:03:52;;;;;;;15.60;3.20;;;;;;;;;;107135;1290;22802;-78
2022/12/28 12:06:18;;;;;;;14.80;3.50;;;;;;;;;;107067;1298;22084;-77
2022/12/28 12:08:48;;;;;;;15.40;3.30;;;;;;;;;;107180;1289;22041;-77
2022/12/28 12:11:17;;;;;;;10.00;5.10;;;;;;;;;;106775;1308;22722;-78
2022/12/28 12:13:47;;;;;;;12.00;3.30;;;;;;;;;;106745;1306;22090;-79
2022/12/28 12:16:20;;;;;;;12.20;3.80;;;;;;;;;;106922;1306;22068;-77
2022/12/28 12:18:51;;;;;;;10.20;3.20;;;;;;;;;;106768;1310;22112;-78
2022/12/28 12:21:25;;;;;;;7.20;3.00;;;;;;;;;;106688;1307;22078;-78
2022/12/28 12:23:55;;;;;;;7.70;2.50;;;;;;;;;;106866;1310;22072;-78
2022/12/28 12:26:36;;;;;;;10.50;3.60;;;;;;;;;;106740;1310;22049;-78
2022/12/28 12:29:13;;;;;;;9.70;3.10;;;;;;;;;;106770;1309;22066;-80
2022/12/28 12:31:46;;;;;;;8.90;3.20;;;;;;;;;;106771;1308;22073;-81
2022/12/28 12:34:24;;;;;;;9.10;3.30;;;;;;;;;;106777;1307;22237;-78
2022/12/28 12:37:01;;;;;;;9.10;3.30;;;;;;;;;;106809;1309;22123;-79
2022/12/28 12:39:39;;;;;;;10.10;3.80;;;;;;;;;;106889;1307;23069;-78
2022/12/28 12:42:21;;;;;;;13.10;4.40;;;;;;;;;;106897;1297;22062;-78
2022/12/28 12:44:53;;;;;;;10.40;3.60;;;;;;;;;;106986;1307;21964;-78
2022/12/28 12:47:45;;;;;;;8.90;2.80;;;;;;;;;;107171;1290;22683;-76
2022/12/28 12:50:15;;;;;;;10.80;3.10;;;;;;;;;;106772;1309;22130;-77
2022/12/28 12:53:00;;;;;;;14.70;3.70;;;;;;;;;;106907;1307;22147;-82
2022/12/28 12:55:45;;;;;;;13.60;3.40;;;;;;;;;;106923;1308;22144;-78
2022/12/28 12:58:29;;;;;;;18.30;4.60;;;;;;;;;;106946;1311;22066;-78
2022/12/28 13:01:15;;;;;;;19.80;4.30;;;;;;;;;;106939;1307;22122;-79
2022/12/28 13:03:43;;;;;;;11.10;3.10;;;;;;;;;;106743;1307;22111;-76
2022/12/28 13:06:15;;;;;;;9.90;3.50;;;;;;;;;;107097;1291;21993;-82
2022/12/28 13:08:59;;;;;;;9.60;3.60;;;;;;;;;;106692;1313;22643;-79
2022/12/28 13:11:27;;;;;;;10.40;3.50;;;;;;;;;;106740;1309;22935;-79
2022/12/28 13:13:54;;;;;;;15.30;4.80;;;;;;;;;;106748;1307;22060;-79
2022/12/28 13:16:22;;;;;;;14.90;4.50;;;;;;;;;;106693;1307;22069;-78
2022/12/28 13:19:18;;;;;;;9.50;3.60;;;;;;;;;;106844;1307;22070;-76
2022/12/28 13:21:48;;;;;;;10.90;3.50;;;;;;;;;;106705;1310;22013;-77
2022/12/28 13:24:17;;;;;;;10.80;3.60;;;;;;;;;;106842;1307;22076;-78
2022/12/28 13:26:44;;;;;;;8.80;2.70;;;;;;;;;;106906;1307;22738;-78
2022/12/28 13:29:18;;;;;;;9.90;3.60;;;;;;;;;;106679;1307;22152;-76
2022/12/28 13:31:48;;;;;;;14.40;4.70;;;;;;;;;;106733;1309;21983;-77
2022/12/28 13:34:22;;;;;;;15.00;4.80;;;;;;;;;;106981;1302;22111;-78
2022/12/28 13:36:53;;;;;;;19.10;6.30;;;;;;;;;;106674;1307;22429;-78
2022/12/28 13:39:20;;;;;;;14.60;5.20;;;;;;;;;;106850;1307;22755;-78
2022/12/28 13:41:51;;;;;;;14.90;5.60;;;;;;;;;;106960;1307;22119;-78
2022/12/28 13:44:18;;;;;;;17.90;5.80;;;;;;;;;;106911;1306;22106;-78
2022/12/28 13:46:49;;;;;;;16.40;6.20;;;;;;;;;;106844;1307;22061;-76
2022/12/28 13:49:17;;;;;;;16.70;6.00;;;;;;;;;;106885;1306;22041;-79
2022/12/28 13:51:44;;;;;;;19.10;6.00;;;;;;;;;;106736;1307;22070;-78
2022/12/28 13:54:12;;;;;;;22.10;7.20;;;;;;;;;;106725;1306;22094;-78
2022/12/28 13:56:40;;;;;;;17.70;5.70;;;;;;;;;;106981;1288;22089;-80
2022/12/28 13:59:09;;;;;;;19.70;6.10;;;;;;;;;;106793;1306;22031;-77
2022/12/28 14:01:39;;;;;;;19.90;6.20;;;;;;;;;;107053;1300;22072;-78
2022/12/28 14:04:17;;;;;;;23.00;7.10;;;;;;;;;;106791;1302;22130;-77
2022/12/28 14:06:44;;;;;;;21.00;7.60;;;;;;;;;;106765;1308;22081;-79
2022/12/28 14:09:12;;;;;;;30.60;7.80;;;;;;;;;;106858;1307;22804;-77
2022/12/28 14:11:40;;;;;;;21.80;8.60;;;;;;;;;;106686;1307;22039;-78
2022/12/28 14:14:07;;;;;;;22.00;7.90;;;;;;;;;;106714;1309;22088;-80
2022/12/28 14:16:34;;;;;;;21.70;6.80;;;;;;;;;;106680;1309;22732;-78
2022/12/28 14:19:02;;;;;;;24.50;7.60;;;;;;;;;;106637;1309;22075;-78
2022/12/28 14:21:33;;;;;;;18.00;7.30;;;;;;;;;;106702;1309;22623;-80
2022/12/28 14:24:04;;;;;;;20.30;7.60;;;;;;;;;;106758;1307;21969;-77
2022/12/28 14:26:32;;;;;;;19.10;5.70;;;;;;;;;;106704;1307;22106;-84
2022/12/28 14:28:59;;;;;;;18.00;6.50;;;;;;;;;;106737;1302;22919;-78
2022/12/28 14:31:27;;;;;;;17.70;6.70;;;;;;;;;;106603;1304;22316;-79
2022/12/28 14:33:56;;;;;;;11.70;4.30;;;;;;;;;;106691;1307;22665;-77
2022/12/28 14:36:25;;;;;;;10.00;3.30;;;;;;;;;;106754;1307;22051;-78
2022/12/28 14:38:53;;;;;;;12.90;4.50;;;;;;;;;;106813;1309;22131;-77
2022/12/28 14:41:22;;;;;;;14.80;4.80;;;;;;;;;;107066;1299;22118;-77
2022/12/28 14:43:53;;;;;;;15.20;5.10;;;;;;;;;;106767;1302;21946;-77
2022/12/28 14:46:29;;;;;;;11.90;4.10;;;;;;;;;;106774;1308;22820;-77
2022/12/28 14:48:56;;;;;;;12.00;4.50;;;;;;;;;;106830;1305;22161;-78
2022/12/28 14:51:25;;;;;;;14.60;5.50;;;;;;;;;;106714;1307;22121;-78
2022/12/28 14:54:11;;;;;;;13.30;4.20;;;;;;;;;;106646;1309;22763;-76
2022/12/28 14:56:38;;;;;;;12.10;3.50;;;;;;;;;;106845;1306;22188;-78
2022/12/28 14:59:10;;;;;;;16.70;5.20;;;;;;;;;;106665;1299;22112;-80
2022/12/28 15:01:39;;;;;;;14.90;4.50;;;;;;;;;;107011;1302;22027;-80
2022/12/28 15:04:06;;;;;;;15.30;4.90;;;;;;;;;;106709;1308;22070;-80
2022/12/28 15:06:33;;;;;;;14.70;5.10;;;;;;;;;;106747;1295;22147;-79
2022/12/28 15:09:03;;;;;;;14.20;4.60;;;;;;;;;;106788;1302;21958;-77